createdAt,value
2024-01-26T00:00:15.837Z,101687.53
2024-01-26T00:04:29.524Z,101686.91
2024-01-26T00:08:32.058Z,101704.00
2024-01-26T00:12:34.563Z,101687.09
2024-01-26T00:16:39.278Z,101679.81
2024-01-26T00:20:40.975Z,101684.41
2024-01-26T00:24:42.853Z,101686.34
2024-01-26T00:28:45.173Z,101678.59
2024-01-26T00:32:46.699Z,101669.38
2024-01-26T00:36:48.496Z,101673.06
2024-01-26T00:40:52.221Z,101661.63
2024-01-26T00:44:53.728Z,101661.75
2024-01-26T00:48:56.585Z,101655.16
2024-01-26T00:53:00.189Z,101653.84
2024-01-26T00:57:04.792Z,101650.94
2024-01-26T01:01:09.065Z,101657.97
2024-01-26T01:05:11.197Z,101658.31
2024-01-26T01:09:13.472Z,101657.69
2024-01-26T01:13:17.019Z,101650.59
2024-01-26T01:17:18.527Z,101651.59
2024-01-26T01:21:19.956Z,101650.41
2024-01-26T01:25:24.649Z,101655.06
2024-01-26T01:29:28.753Z,101641.84
2024-01-26T01:33:32.575Z,101650.84
2024-01-26T01:37:34.202Z,101648.75
2024-01-26T01:41:35.708Z,101657.63
2024-01-26T01:45:37.570Z,101662.31
2024-01-26T01:49:39.927Z,101658.63
2024-01-26T01:53:42.174Z,101644.69
2024-01-26T01:57:46.256Z,101653.59
2024-01-26T02:01:49.356Z,101640.75
2024-01-26T02:05:51.176Z,101635.28
2024-01-26T02:09:54.232Z,101642.31
2024-01-26T02:13:55.774Z,101635.59
2024-01-26T02:17:57.351Z,101626.63
2024-01-26T02:21:59.245Z,101626.69
2024-01-26T02:26:00.907Z,101621.75
2024-01-26T02:30:03.032Z,101622.13
2024-01-26T02:34:12.939Z,101620.56
2024-01-26T02:38:14.690Z,101616.84
2024-01-26T02:42:16.311Z,101606.97
2024-01-26T02:46:17.853Z,101602.44
2024-01-26T02:50:19.448Z,101593.66
2024-01-26T02:54:24.012Z,101584.38
2024-01-26T02:58:28.795Z,101577.63
2024-01-26T03:02:30.429Z,101580.66
2024-01-26T03:06:31.974Z,101582.47
2024-01-26T03:10:34.497Z,101582.56
2024-01-26T03:14:35.939Z,101576.34
2024-01-26T03:18:38.671Z,101576.94
2024-01-26T03:22:42.650Z,101583.09
2024-01-26T03:26:44.680Z,101569.47
2024-01-26T03:30:48.747Z,101574.53
2024-01-26T03:34:50.911Z,101582.22
2024-01-26T03:38:52.494Z,101589.91
2024-01-26T03:42:54.273Z,101588.47
2024-01-26T03:46:55.721Z,101581.03
2024-01-26T03:50:57.480Z,101580.69
2024-01-26T03:54:59.156Z,101587.91
2024-01-26T03:59:00.928Z,101575.72
2024-01-26T04:03:03.015Z,101558.53
2024-01-26T04:07:04.808Z,101558.41
2024-01-26T04:11:06.619Z,101545.56
2024-01-26T04:15:08.698Z,101539.63
2024-01-26T04:19:10.726Z,101534.44
2024-01-26T04:23:12.320Z,101517.38
2024-01-26T04:27:14.194Z,101515.44
2024-01-26T04:31:15.927Z,101508.09
2024-01-26T04:35:17.525Z,101505.13
2024-01-26T04:39:21.457Z,101498.25
2024-01-26T04:43:23.142Z,101494.88
2024-01-26T04:47:24.861Z,101489.44
2024-01-26T04:51:26.614Z,101489.56
2024-01-26T04:55:31.926Z,101490.06
2024-01-26T04:59:34.159Z,101483.09
2024-01-26T05:03:38.186Z,101481.78
2024-01-26T05:07:40.274Z,101475.88
2024-01-26T05:11:41.790Z,101478.53
2024-01-26T05:15:43.354Z,101477.31
2024-01-26T05:19:44.790Z,101469.72
2024-01-26T05:23:46.939Z,101463.09
2024-01-26T05:27:48.571Z,101459.75
2024-01-26T05:31:51.375Z,101445.94
2024-01-26T05:35:53.689Z,101446.16
2024-01-26T05:39:56.412Z,101444.13
2024-01-26T05:43:59.899Z,101440.91
2024-01-26T05:48:02.122Z,101435.72
2024-01-26T05:52:04.281Z,101428.63
2024-01-26T05:56:07.035Z,101432.91
2024-01-26T06:00:09.136Z,101422.13
2024-01-26T06:04:11.240Z,101409.31
2024-01-26T06:08:13.568Z,101403.75
2024-01-26T06:12:15.384Z,101398.66
2024-01-26T06:16:17.472Z,101388.22
2024-01-26T06:20:19.152Z,101377.06
2024-01-26T06:24:20.748Z,101386.88
2024-01-26T06:28:23.071Z,101374.41
2024-01-26T06:32:24.656Z,101379.19
2024-01-26T06:36:28.454Z,101360.69
2024-01-26T06:59:23.538Z,101350.75
2024-01-26T07:03:26.716Z,101351.19
2024-01-26T07:07:28.202Z,101352.44
2024-01-26T07:11:30.980Z,101339.81
2024-01-26T07:15:37.059Z,101334.16
2024-01-26T07:19:39.082Z,101332.69
2024-01-26T07:23:41.721Z,101323.19
2024-01-26T07:27:43.480Z,101334.75
2024-01-26T07:31:47.439Z,101326.69
2024-01-26T07:35:50.103Z,101320.09
2024-01-26T07:39:54.802Z,101317.41
2024-01-26T07:43:56.237Z,101315.75
2024-01-26T07:47:57.815Z,101318.28
2024-01-26T07:51:59.444Z,101318.53
2024-01-26T07:56:02.956Z,101326.56
2024-01-26T08:00:11.921Z,101331.34
2024-01-26T08:04:13.738Z,101336.06
2024-01-26T08:08:15.858Z,101322.59
2024-01-26T08:12:25.170Z,101334.38
2024-01-26T08:16:37.248Z,101329.31
2024-01-26T08:20:39.074Z,101324.16
2024-01-26T08:24:41.660Z,101319.16
2024-01-26T08:28:43.676Z,101321.50
2024-01-26T08:32:47.149Z,101311.16
2024-01-26T08:36:48.855Z,101304.22
2024-01-26T08:40:50.884Z,101300.16
2024-01-26T08:44:52.433Z,101295.19
2024-01-26T08:48:54.664Z,101302.28
2024-01-26T08:52:56.278Z,101313.91
2024-01-26T08:57:00.827Z,101330.56
2024-01-26T09:01:05.331Z,101321.56
2024-01-26T09:05:07.550Z,101319.63
2024-01-26T09:09:10.510Z,101322.66
2024-01-26T09:13:12.623Z,101327.91
2024-01-26T09:17:14.073Z,101336.16
2024-01-26T09:21:15.679Z,101344.88
2024-01-26T09:25:17.548Z,101349.41
2024-01-26T09:29:19.449Z,101354.19
2024-01-26T09:33:23.693Z,101359.72
2024-01-26T09:37:25.807Z,101362.31
2024-01-26T09:41:29.057Z,101342.63
2024-01-26T09:45:30.743Z,101349.75
2024-01-26T09:49:32.353Z,101342.63
2024-01-26T09:53:38.707Z,101345.47
2024-01-26T10:02:08.196Z,101337.19
2024-01-26T10:06:13.642Z,101340.94
2024-01-26T10:10:16.211Z,101344.28
2024-01-26T10:14:22.801Z,101340.59
2024-01-26T10:18:24.495Z,101338.53
2024-01-26T10:22:26.307Z,101337.06
2024-01-26T10:26:29.959Z,101334.78
2024-01-26T10:30:34.562Z,101333.00
2024-01-26T10:34:38.141Z,101337.66
2024-01-26T10:38:41.977Z,101350.34
2024-01-26T10:42:46.441Z,101330.91
2024-01-26T10:46:49.065Z,101324.59
2024-01-26T10:50:55.350Z,101328.22
2024-01-26T10:54:56.968Z,101331.13
2024-01-26T10:58:58.430Z,101335.88
2024-01-26T11:03:00.399Z,101327.06
2024-01-26T11:07:02.668Z,101342.06
2024-01-26T11:11:09.321Z,101329.38
2024-01-26T11:15:17.011Z,101377.44
2024-01-26T11:19:23.926Z,101413.16
2024-01-26T11:23:25.711Z,101435.13
2024-01-26T11:27:30.707Z,101450.03
2024-01-26T11:31:34.246Z,101458.88
2024-01-26T11:35:35.814Z,101454.66
2024-01-26T11:39:39.192Z,101473.66
2024-01-26T11:43:47.094Z,101477.09
2024-01-26T11:47:49.556Z,101498.06
2024-01-26T11:51:51.890Z,101505.13
2024-01-26T11:55:55.537Z,101518.88
2024-01-26T12:00:03.457Z,101539.91
2024-01-26T12:04:06.124Z,101535.22
2024-01-26T12:08:08.473Z,101552.81
2024-01-26T12:12:11.504Z,101546.66
2024-01-26T12:16:13.434Z,101557.06
2024-01-26T12:20:15.426Z,101587.94
2024-01-26T12:24:17.575Z,101584.84
2024-01-26T12:28:20.208Z,101606.91
2024-01-26T12:32:24.146Z,101619.84
2024-01-26T12:36:35.247Z,101617.22
2024-01-26T12:40:41.762Z,101637.78
2024-01-26T12:44:43.354Z,101644.41
2024-01-26T12:48:47.507Z,101649.47
2024-01-26T12:52:49.327Z,101640.22
2024-01-26T12:56:52.584Z,101669.31
2024-01-26T13:00:55.565Z,101684.78
2024-01-26T13:04:57.154Z,101672.16
2024-01-26T13:08:58.690Z,101679.13
2024-01-26T13:13:00.209Z,101699.72
2024-01-26T13:17:01.682Z,101705.41
2024-01-26T13:21:05.560Z,101726.38
2024-01-26T13:25:10.207Z,101735.28
2024-01-26T13:29:13.177Z,101763.44
2024-01-26T13:33:16.021Z,101779.34
2024-01-26T13:37:17.836Z,101780.97
2024-01-26T13:41:20.678Z,101793.09
2024-01-26T13:45:22.831Z,101800.38
2024-01-26T13:49:26.133Z,101791.78
2024-01-26T13:53:28.204Z,101818.28
2024-01-26T13:57:32.902Z,101806.69
2024-01-26T14:01:36.926Z,101824.16
2024-01-26T14:05:39.209Z,101824.50
2024-01-26T14:09:42.986Z,101836.09
2024-01-26T14:13:46.149Z,101850.75
2024-01-26T14:17:48.776Z,101854.75
2024-01-26T14:21:50.697Z,101861.06
2024-01-26T14:25:56.347Z,101868.34
2024-01-26T14:29:58.525Z,101890.19
2024-01-26T14:34:00.325Z,101914.91
2024-01-26T14:38:01.941Z,101915.88
2024-01-26T14:42:12.825Z,101925.47
2024-01-26T14:46:16.917Z,101941.78
2024-01-26T14:50:18.844Z,101947.91
2024-01-26T14:54:20.835Z,101950.09
2024-01-26T14:58:22.992Z,101969.75
2024-01-26T15:02:25.879Z,101968.41
2024-01-26T15:06:27.376Z,101987.41
2024-01-26T15:10:29.307Z,101996.50
2024-01-26T15:14:31.028Z,102008.88
2024-01-26T15:18:33.953Z,102020.31
2024-01-26T15:22:35.840Z,102032.88
2024-01-26T15:26:42.071Z,102047.38
2024-01-26T15:30:44.005Z,102052.03
2024-01-26T15:34:45.735Z,102066.63
2024-01-26T15:38:47.388Z,102069.56
2024-01-26T15:42:48.898Z,102077.56
2024-01-26T15:46:51.483Z,102077.44
2024-01-26T15:50:53.633Z,102093.97
2024-01-26T15:54:55.779Z,102103.13
2024-01-26T15:58:57.636Z,102112.09
2024-01-26T16:03:01.554Z,102106.50
2024-01-26T16:07:03.385Z,102126.25
2024-01-26T16:11:05.285Z,102128.88
2024-01-26T16:15:08.277Z,102147.47
2024-01-26T16:19:11.356Z,102162.78
2024-01-26T16:23:12.993Z,102173.22
2024-01-26T16:27:15.003Z,102176.22
2024-01-26T16:31:16.658Z,102195.16
2024-01-26T16:35:19.273Z,102198.06
2024-01-26T16:39:29.256Z,102204.16
2024-01-26T16:43:33.334Z,102207.66
2024-01-26T16:47:35.119Z,102223.38
2024-01-26T16:51:36.622Z,102228.03
2024-01-26T16:55:38.635Z,102237.97
2024-01-26T16:59:41.043Z,102243.59
2024-01-26T17:03:43.196Z,102260.28
2024-01-26T17:07:44.641Z,102268.19
2024-01-26T17:11:47.413Z,102272.38
2024-01-26T17:15:48.999Z,102259.00
2024-01-26T17:19:53.724Z,102274.13
2024-01-26T17:23:55.372Z,102276.94
2024-01-26T17:27:56.849Z,102277.03
2024-01-26T17:32:00.584Z,102292.03
2024-01-26T17:36:04.249Z,102297.81
2024-01-26T17:40:07.596Z,102306.19
2024-01-26T17:44:09.344Z,102300.22
2024-01-26T17:48:12.353Z,102314.59
2024-01-26T17:52:14.220Z,102320.47
2024-01-26T17:56:16.568Z,102334.16
2024-01-26T18:00:19.134Z,102336.94
2024-01-26T18:04:22.298Z,102347.16
2024-01-26T18:08:25.602Z,102361.06
2024-01-26T18:12:27.929Z,102357.06
2024-01-26T18:16:29.372Z,102368.19
2024-01-26T18:20:32.324Z,102372.41
2024-01-26T18:24:33.820Z,102379.06
2024-01-26T18:28:36.642Z,102392.91
2024-01-26T18:32:38.215Z,102393.88
2024-01-26T18:36:42.006Z,102403.13
2024-01-26T18:40:43.979Z,102406.41
2024-01-26T18:44:45.778Z,102420.44
2024-01-26T18:48:50.549Z,102429.09
2024-01-26T18:52:52.156Z,102434.38
2024-01-26T18:56:55.325Z,102439.91
2024-01-26T19:01:03.406Z,102450.84
2024-01-26T19:05:11.249Z,102448.72
2024-01-26T19:09:13.531Z,102461.69
2024-01-26T19:13:15.413Z,102472.56
2024-01-26T19:17:20.884Z,102478.75
2024-01-26T19:21:22.591Z,102483.56
2024-01-26T19:25:24.196Z,102490.41
2024-01-26T19:29:31.909Z,102487.00
2024-01-26T19:33:40.164Z,102500.50
2024-01-26T19:37:43.114Z,102501.19
2024-01-26T19:41:46.576Z,102510.41
2024-01-26T19:45:48.440Z,102521.56
2024-01-26T19:49:51.814Z,102527.16
2024-01-26T19:53:53.928Z,102536.41
2024-01-26T19:57:56.375Z,102548.00
2024-01-26T20:01:57.889Z,102557.63
2024-01-26T20:05:59.612Z,102560.47
2024-01-26T20:10:05.114Z,102562.44
2024-01-26T20:14:08.626Z,102566.03
2024-01-26T20:18:11.177Z,102566.13
2024-01-26T20:22:13.204Z,102571.97
2024-01-26T20:26:15.190Z,102569.16
2024-01-26T20:30:19.431Z,102571.59
2024-01-26T20:34:21.648Z,102579.78
2024-01-26T20:38:25.896Z,102579.75
2024-01-26T20:42:27.494Z,102583.88
2024-01-26T20:46:29.364Z,102588.41
2024-01-26T20:50:31.384Z,102584.31
2024-01-26T20:54:32.965Z,102585.09
2024-01-26T20:58:34.574Z,102592.63
2024-01-26T21:02:36.138Z,102598.91
2024-01-26T21:06:42.387Z,102604.25
2024-01-26T21:10:46.408Z,102587.63
2024-01-26T21:14:49.044Z,102595.66
2024-01-26T21:18:52.015Z,102592.69
2024-01-26T21:22:54.488Z,102597.94
2024-01-26T21:26:57.810Z,102597.69
2024-01-26T21:30:59.390Z,102603.38
2024-01-26T21:35:01.084Z,102603.97
2024-01-26T21:39:06.145Z,102590.66
2024-01-26T21:43:09.847Z,102591.63
2024-01-26T21:47:11.475Z,102594.41
2024-01-26T21:51:14.847Z,102602.47
2024-01-26T21:55:16.645Z,102605.31
2024-01-26T21:59:19.117Z,102610.34
2024-01-26T22:03:21.471Z,102609.38
2024-01-26T22:07:23.040Z,102617.38
2024-01-26T22:11:28.623Z,102615.25
2024-01-26T22:15:33.584Z,102620.28
2024-01-26T22:19:35.618Z,102623.38
2024-01-26T22:23:37.393Z,102630.53
2024-01-26T22:27:40.410Z,102626.38
2024-01-26T22:31:42.943Z,102623.75
2024-01-26T22:35:46.453Z,102620.66
2024-01-26T22:39:49.092Z,102614.00
2024-01-26T22:43:52.614Z,102616.75
2024-01-26T22:47:55.677Z,102621.19
2024-01-26T22:51:57.179Z,102624.88
2024-01-26T22:55:58.741Z,102643.47
2024-01-26T23:00:02.334Z,102655.22
2024-01-26T23:04:09.113Z,102654.19
2024-01-26T23:08:20.932Z,102661.19
2024-01-26T23:12:26.191Z,102666.59
2024-01-26T23:16:28.631Z,102674.38
2024-01-26T23:20:30.114Z,102674.38
2024-01-26T23:24:31.820Z,102682.41
2024-01-26T23:28:36.119Z,102672.94
2024-01-26T23:32:40.674Z,102681.09
2024-01-26T23:46:07.236Z,102681.53
2024-01-26T23:50:09.476Z,102687.19
2024-01-26T23:54:13.840Z,102689.53
2024-01-26T23:58:15.665Z,102696.69
